Taiseimaru — JL6483 — position and weather

sailwx.info

Track history (hours):
 
Tides and Currents Weather Stations Pressure Air Temp Water Temp Dewpoint Dewpoint Depression Visibility Wind Speed Wind Dir Waves Ship Positions

Taiseimaru

Last reported at 2014-Jul-21 06:33 UTC. Time now 2014-Jul-22 17:26 UTC.
Position N 34°37' E 134°58'.

Length 84 m; draft 5 m.

Type: Cargo ship. MMSI: 431500568.

Date/timePositionNaut miles runAvg speedWind from/ knotsBaromVisibWave heightAir tempDewpointWater temp
2014-Jul-21 06:33N 34°37' E 134°58'1212.3
2014-Jul-21 05:33N 34°36' E 135°13'1110.5
2014-Jul-21 04:33N 34°35' E 135°26'0 0.1
2014-Jul-21 03:25N 34°35' E 135°26'0 0.0
2014-Jul-21 02:07N 34°35' E 135°26'0 0.0
2014-Jul-21 01:25N 34°35' E 135°26'0 0.0
2014-Jul-21 00:19N 34°35' E 135°26'0 0.0
2014-Jul-20 23:31N 34°35' E 135°26'0 0.0
2014-Jul-20 22:31N 34°35' E 135°26'0 0.0
2014-Jul-20 21:13N 34°35' E 135°26'0 0.0
2014-Jul-20 20:25N 34°35' E 135°26'0 0.0
2014-Jul-20 19:30N 34°35' E 135°26'0 0.0
2014-Jul-20 18:30N 34°35' E 135°26'0 0.0
2014-Jul-20 17:30N 34°35' E 135°26'0 0.0
2014-Jul-20 16:30N 34°35' E 135°26'0 0.0
2014-Jul-20 15:30N 34°35' E 135°26'0 0.0
2014-Jul-20 14:30N 34°35' E 135°26'0 0.0
2014-Jul-20 13:30N 34°35' E 135°26'0 0.0
2014-Jul-20 12:24N 34°35' E 135°26'0 0.0
2014-Jul-20 11:24N 34°35' E 135°26'0 0.0
2014-Jul-20 10:24N 34°35' E 135°26'0 0.0
2014-Jul-20 09:24N 34°35' E 135°26'0 0.0
2014-Jul-20 08:30N 34°35' E 135°26'0 0.0
2014-Jul-20 07:18N 34°35' E 135°26'0 0.0
2014-Jul-20 06:30N 34°35' E 135°26'0 0.0
2014-Jul-20 05:30N 34°35' E 135°26'0 0.0
2014-Jul-20 04:30N 34°35' E 135°26'0 0.0
2014-Jul-20 03:30N 34°35' E 135°26'0 0.0
2014-Jul-20 02:30N 34°35' E 135°26'0 0.0
2014-Jul-20 01:30N 34°35' E 135°26'0 0.0
2014-Jul-20 00:30N 34°35' E 135°26'0 0.0
2014-Jul-19 23:30N 34°35' E 135°26'0 0.0
2014-Jul-19 22:30N 34°35' E 135°26'0 0.0
2014-Jul-19 21:30N 34°35' E 135°26'0 0.0
2014-Jul-19 20:24N 34°35' E 135°26'0 0.0
2014-Jul-19 19:30N 34°35' E 135°26'0 0.0
2014-Jul-19 18:24N 34°35' E 135°26'0 0.0
2014-Jul-19 17:30N 34°35' E 135°26'0 0.0
2014-Jul-19 16:24N 34°35' E 135°26'0 0.1
2014-Jul-19 15:30N 34°35' E 135°26'0 0.0
2014-Jul-19 14:30N 34°35' E 135°26'0 0.0
2014-Jul-19 13:30N 34°35' E 135°26'0 0.0
2014-Jul-19 12:30N 34°35' E 135°26'0 0.0
2014-Jul-19 11:30N 34°35' E 135°26'0 0.0
2014-Jul-19 10:30N 34°35' E 135°26'0 0.0
2014-Jul-19 09:23N 34°35' E 135°26'0 0.0
2014-Jul-19 08:29N 34°35' E 135°26'0 0.0
2014-Jul-19 07:23N 34°35' E 135°26'0 0.1
2014-Jul-19 06:29N 34°35' E 135°26'0 0.0
2014-Jul-19 05:05N 34°35' E 135°26'0 0.0
2014-Jul-19 04:23N 34°35' E 135°26'0 0.0
2014-Jul-19 03:23N 34°35' E 135°26'0 0.0
2014-Jul-19 02:29N 34°35' E 135°26'0 0.0
2014-Jul-19 01:23N 34°35' E 135°26'0 0.0
2014-Jul-19 00:23N 34°35' E 135°26'0 0.0
2014-Jul-18 23:29N 34°35' E 135°26'2 1.7
2014-Jul-18 22:33N 34°36' E 135°24'1 0.9
2014-Jul-18 21:24N 34°35' E 135°23'0 0.0
2014-Jul-18 20:30N 34°35' E 135°23'0 0.0
2014-Jul-18 19:24N 34°35' E 135°23'0 0.0
2014-Jul-18 17:18N 34°35' E 135°23'0 0.0
2014-Jul-18 16:24N 34°35' E 135°23'0 0.0
2014-Jul-18 15:30N 34°35' E 135°23'0 0.0
2014-Jul-18 14:24N 34°35' E 135°23'0 0.0
2014-Jul-18 13:30N 34°35' E 135°23'0 0.0
2014-Jul-18 12:30N 34°35' E 135°23'3 3.2
2014-Jul-18 11:33N 34°34' E 135°20'1111.3
2014-Jul-18 10:33N 34°26' E 135°10'1110.9
2014-Jul-18 09:33N 34°18' E 135°01'1010.2
2014-Jul-18 08:33N 34°08' E 135°00'209 9.4
2014-Jul-17 10:14N 34°49' E 139°09'910.7
2014-Jul-17 09:24N 34°56' E 139°16'910.9
2014-Jul-17 08:33N 35°01' E 139°26'1110.7
2014-Jul-17 07:33N 35°06' E 139°37'1110.9
2014-Jul-17 06:33N 35°14' E 139°46'1110.9
2014-Jul-17 05:33N 35°24' E 139°42'4 4.0
2014-Jul-17 04:32N 35°28' E 139°42'0 0.0
2014-Jul-17 03:32N 35°28' E 139°42'0 0.0
2014-Jul-17 02:32N 35°28' E 139°42'0 0.0
2014-Jul-17 01:32N 35°28' E 139°42'0 0.0
2014-Jul-17 00:26N 35°28' E 139°42'0 0.0
2014-Jul-16 23:32N 35°28' E 139°42'0 0.0
2014-Jul-16 22:32N 35°28' E 139°42'0 0.0
2014-Jul-16 21:32N 35°28' E 139°42'0 0.0
2014-Jul-16 20:32N 35°28' E 139°42'0 0.0
2014-Jul-16 19:32N 35°28' E 139°42'0 0.0
2014-Jul-16 18:32N 35°28' E 139°42'0 0.0
2014-Jul-16 17:32N 35°28' E 139°42'0 0.0
2014-Jul-16 16:32N 35°28' E 139°42'0 0.0
2014-Jul-16 15:32N 35°28' E 139°42'0 0.0
2014-Jul-16 14:32N 35°28' E 139°42'0 0.0
2014-Jul-16 13:32N 35°28' E 139°42'0 0.0
2014-Jul-16 12:32N 35°28' E 139°42'0 0.0
2014-Jul-16 11:32N 35°28' E 139°42'0 0.0
2014-Jul-16 10:32N 35°28' E 139°42'0 0.0
2014-Jul-16 09:32N 35°28' E 139°42'0 0.0
2014-Jul-16 08:32N 35°28' E 139°42'0 0.0
2014-Jul-16 07:32N 35°28' E 139°42'0 0.0
2014-Jul-16 06:32N 35°28' E 139°42'0 0.0
2014-Jul-16 05:32N 35°28' E 139°42'0 0.0
2014-Jul-16 04:32N 35°28' E 139°42'0 0.0
2014-Jul-16 03:32N 35°28' E 139°42'0 0.0
2014-Jul-16 02:32N 35°28' E 139°42'0 0.0
2014-Jul-16 01:32N 35°28' E 139°42'0 0.0
2014-Jul-16 00:32N 35°28' E 139°42'0 0.0
2014-Jul-15 23:32N 35°28' E 139°42'4 4.5
2014-Jul-15 22:33N 35°24' E 139°44'0 0.4
2014-Jul-15 21:33N 35°24' E 139°45'0 0.1
2014-Jul-15 20:33N 35°24' E 139°45'0 0.0
2014-Jul-15 19:33N 35°24' E 139°45'0 0.0
2014-Jul-15 18:33N 35°24' E 139°45'0 0.0
2014-Jul-15 17:33N 35°24' E 139°45'0 0.0
2014-Jul-15 16:33N 35°24' E 139°45'0 0.1
2014-Jul-15 15:33N 35°24' E 139°45'0 0.0
2014-Jul-15 14:33N 35°24' E 139°45'0 0.0
2014-Jul-15 13:33N 35°24' E 139°45'0 0.0
2014-Jul-15 12:32N 35°24' E 139°45'0 0.0
2014-Jul-15 11:32N 35°24' E 139°45'0 0.1
2014-Jul-15 10:32N 35°24' E 139°45'0 0.1
2014-Jul-15 09:32N 35°24' E 139°45'0 0.0
2014-Jul-15 08:32N 35°24' E 139°45'1 0.6
2014-Jul-15 07:33N 35°24' E 139°44'6 6.0
2014-Jul-15 06:32N 35°29' E 139°39'0 0.0
2014-Jul-15 05:32N 35°29' E 139°39'0 0.0
2014-Jul-15 04:32N 35°29' E 139°39'0 0.0
2014-Jul-15 03:32N 35°29' E 139°39'0 0.0
2014-Jul-15 02:32N 35°29' E 139°39'0 0.0
2014-Jul-15 01:32N 35°29' E 139°39'0 0.0
2014-Jul-15 00:32N 35°29' E 139°39'0 0.0
2014-Jul-14 23:32N 35°29' E 139°39'0 0.0
2014-Jul-14 22:32N 35°29' E 139°39'0 0.0
2014-Jul-14 21:32N 35°29' E 139°39'0 0.0
2014-Jul-14 20:32N 35°29' E 139°39'0 0.0
2014-Jul-14 19:32N 35°29' E 139°39'0 0.0
2014-Jul-14 18:32N 35°29' E 139°39'0 0.0
2014-Jul-14 17:32N 35°29' E 139°39'0 0.0
2014-Jul-14 16:32N 35°29' E 139°39'0 0.0
2014-Jul-14 15:32N 35°29' E 139°39'0 0.0
2014-Jul-14 14:32N 35°29' E 139°39'0 0.0
2014-Jul-14 13:32N 35°29' E 139°39'0 0.0
2014-Jul-14 12:32N 35°29' E 139°39'0 0.0
2014-Jul-14 11:32N 35°29' E 139°39'0 0.0
2014-Jul-14 10:32N 35°29' E 139°39'0 0.0
2014-Jul-14 09:32N 35°29' E 139°39'0 0.0
2014-Jul-14 08:32N 35°29' E 139°39'0 0.0
2014-Jul-14 07:32N 35°29' E 139°39'1 1.1
2014-Jul-14 06:33N 35°28' E 139°40'4 4.5
2014-Jul-14 05:33N 35°26' E 139°45'3 3.2
2014-Jul-14 04:31N 35°28' E 139°42'0 0.0
2014-Jul-14 03:31N 35°28' E 139°42'0 0.0
2014-Jul-14 02:34N 35°28' E 139°42'0 0.0
2014-Jul-14 01:33N 35°28' E 139°42'0 0.0
2014-Jul-14 00:33N 35°28' E 139°42'0 0.0
2014-Jul-13 23:33N 35°28' E 139°42'0 0.0
2014-Jul-13 22:33N 35°28' E 139°42'0 0.0
2014-Jul-13 21:33N 35°28' E 139°42'0 0.0
2014-Jul-13 20:30N 35°28' E 139°42'0 0.0
2014-Jul-13 19:33N 35°28' E 139°42'0 0.0
2014-Jul-13 18:33N 35°28' E 139°42'0 0.0
2014-Jul-13 17:30N 35°28' E 139°42'0 0.0
2014-Jul-13 16:33N 35°28' E 139°42'0 0.0
2014-Jul-13 15:33N 35°28' E 139°42'0 0.0
2014-Jul-13 14:33N 35°28' E 139°42'0 0.0
2014-Jul-13 13:33N 35°28' E 139°42'0 0.0
2014-Jul-13 12:30N 35°28' E 139°42'0 0.0
2014-Jul-13 11:33N 35°28' E 139°42'0 0.0
2014-Jul-13 10:33N 35°28' E 139°42'0 0.0
2014-Jul-13 09:33N 35°28' E 139°42'0 0.0
2014-Jul-13 08:33N 35°28' E 139°42'0 0.0
2014-Jul-13 07:33N 35°28' E 139°42'0 0.0
2014-Jul-13 06:33N 35°28' E 139°42'0 0.0
2014-Jul-13 05:33N 35°28' E 139°42'0 0.0
2014-Jul-13 04:33N 35°28' E 139°42'0 0.0
2014-Jul-13 03:33N 35°28' E 139°42'0 0.0
2014-Jul-13 02:33N 35°28' E 139°42'0 0.0
2014-Jul-13 01:33N 35°28' E 139°42'0 0.0
2014-Jul-13 00:33N 35°28' E 139°42'0 0.0
2014-Jul-12 23:34N 35°28' E 139°42'4 4.5
2014-Jul-12 22:33N 35°24' E 139°45'0 0.0
2014-Jul-12 21:33N 35°24' E 139°45'0 0.0
2014-Jul-12 20:33N 35°24' E 139°45'0 0.0
2014-Jul-12 19:33N 35°24' E 139°45'0 0.1
2014-Jul-12 18:33N 35°24' E 139°45'0 0.0
2014-Jul-12 17:33N 35°24' E 139°45'7 6.9
2014-Jul-12 16:33N 35°17' E 139°45'1010.4
2014-Jul-12 15:33N 35°07' E 139°44'1110.5
2014-Jul-12 14:33N 34°60' E 139°35'1211.6
2014-Jul-12 13:33N 34°53' E 139°24'  
Track history (hours):
 
Tides and Currents Weather Stations Pressure Air Temp Water Temp Dewpoint Dewpoint Depression Visibility Wind Speed Wind Dir Waves Ship Positions

Taiseimaru

Last reported at 2014-Jul-21 06:33 UTC. Time now 2014-Jul-22 17:26 UTC.
Position N 34°37' E 134°58'.

Length 84 m; draft 5 m.

Type: Cargo ship. MMSI: 431500568.

Date/timePositionNaut miles runAvg speedWind from/ knotsBaromVisibWave heightAir tempDewpointWater temp
2014-Jul-21 06:33N 34°37' E 134°58'1212.3
2014-Jul-21 05:33N 34°36' E 135°13'1110.5
2014-Jul-21 04:33N 34°35' E 135°26'0 0.1
2014-Jul-21 03:25N 34°35' E 135°26'0 0.0
2014-Jul-21 02:07N 34°35' E 135°26'0 0.0
2014-Jul-21 01:25N 34°35' E 135°26'0 0.0
2014-Jul-21 00:19N 34°35' E 135°26'0 0.0
2014-Jul-20 23:31N 34°35' E 135°26'0 0.0
2014-Jul-20 22:31N 34°35' E 135°26'0 0.0
2014-Jul-20 21:13N 34°35' E 135°26'0 0.0
2014-Jul-20 20:25N 34°35' E 135°26'0 0.0
2014-Jul-20 19:30N 34°35' E 135°26'0 0.0
2014-Jul-20 18:30N 34°35' E 135°26'0 0.0
2014-Jul-20 17:30N 34°35' E 135°26'0 0.0
2014-Jul-20 16:30N 34°35' E 135°26'0 0.0
2014-Jul-20 15:30N 34°35' E 135°26'0 0.0
2014-Jul-20 14:30N 34°35' E 135°26'0 0.0
2014-Jul-20 13:30N 34°35' E 135°26'0 0.0
2014-Jul-20 12:24N 34°35' E 135°26'0 0.0
2014-Jul-20 11:24N 34°35' E 135°26'0 0.0
2014-Jul-20 10:24N 34°35' E 135°26'0 0.0
2014-Jul-20 09:24N 34°35' E 135°26'0 0.0
2014-Jul-20 08:30N 34°35' E 135°26'0 0.0
2014-Jul-20 07:18N 34°35' E 135°26'0 0.0
2014-Jul-20 06:30N 34°35' E 135°26'0 0.0
2014-Jul-20 05:30N 34°35' E 135°26'0 0.0
2014-Jul-20 04:30N 34°35' E 135°26'0 0.0
2014-Jul-20 03:30N 34°35' E 135°26'0 0.0
2014-Jul-20 02:30N 34°35' E 135°26'0 0.0
2014-Jul-20 01:30N 34°35' E 135°26'0 0.0
2014-Jul-20 00:30N 34°35' E 135°26'0 0.0
2014-Jul-19 23:30N 34°35' E 135°26'0 0.0
2014-Jul-19 22:30N 34°35' E 135°26'0 0.0
2014-Jul-19 21:30N 34°35' E 135°26'0 0.0
2014-Jul-19 20:24N 34°35' E 135°26'0 0.0
2014-Jul-19 19:30N 34°35' E 135°26'0 0.0
2014-Jul-19 18:24N 34°35' E 135°26'0 0.0
2014-Jul-19 17:30N 34°35' E 135°26'0 0.0
2014-Jul-19 16:24N 34°35' E 135°26'0 0.1
2014-Jul-19 15:30N 34°35' E 135°26'0 0.0
2014-Jul-19 14:30N 34°35' E 135°26'0 0.0
2014-Jul-19 13:30N 34°35' E 135°26'0 0.0
2014-Jul-19 12:30N 34°35' E 135°26'0 0.0
2014-Jul-19 11:30N 34°35' E 135°26'0 0.0
2014-Jul-19 10:30N 34°35' E 135°26'0 0.0
2014-Jul-19 09:23N 34°35' E 135°26'0 0.0
2014-Jul-19 08:29N 34°35' E 135°26'0 0.0
2014-Jul-19 07:23N 34°35' E 135°26'0 0.1
2014-Jul-19 06:29N 34°35' E 135°26'0 0.0
2014-Jul-19 05:05N 34°35' E 135°26'0 0.0
2014-Jul-19 04:23N 34°35' E 135°26'0 0.0
2014-Jul-19 03:23N 34°35' E 135°26'0 0.0
2014-Jul-19 02:29N 34°35' E 135°26'0 0.0
2014-Jul-19 01:23N 34°35' E 135°26'0 0.0
2014-Jul-19 00:23N 34°35' E 135°26'0 0.0
2014-Jul-18 23:29N 34°35' E 135°26'2 1.7
2014-Jul-18 22:33N 34°36' E 135°24'1 0.9
2014-Jul-18 21:24N 34°35' E 135°23'0 0.0
2014-Jul-18 20:30N 34°35' E 135°23'0 0.0
2014-Jul-18 19:24N 34°35' E 135°23'0 0.0
2014-Jul-18 17:18N 34°35' E 135°23'0 0.0
2014-Jul-18 16:24N 34°35' E 135°23'0 0.0
2014-Jul-18 15:30N 34°35' E 135°23'0 0.0
2014-Jul-18 14:24N 34°35' E 135°23'0 0.0
2014-Jul-18 13:30N 34°35' E 135°23'0 0.0
2014-Jul-18 12:30N 34°35' E 135°23'3 3.2
2014-Jul-18 11:33N 34°34' E 135°20'1111.3
2014-Jul-18 10:33N 34°26' E 135°10'1110.9
2014-Jul-18 09:33N 34°18' E 135°01'1010.2
2014-Jul-18 08:33N 34°08' E 135°00'209 9.4
2014-Jul-17 10:14N 34°49' E 139°09'910.7
2014-Jul-17 09:24N 34°56' E 139°16'910.9
2014-Jul-17 08:33N 35°01' E 139°26'1110.7
2014-Jul-17 07:33N 35°06' E 139°37'1110.9
2014-Jul-17 06:33N 35°14' E 139°46'1110.9
2014-Jul-17 05:33N 35°24' E 139°42'4 4.0
2014-Jul-17 04:32N 35°28' E 139°42'0 0.0
2014-Jul-17 03:32N 35°28' E 139°42'0 0.0
2014-Jul-17 02:32N 35°28' E 139°42'0 0.0
2014-Jul-17 01:32N 35°28' E 139°42'0 0.0
2014-Jul-17 00:26N 35°28' E 139°42'0 0.0
2014-Jul-16 23:32N 35°28' E 139°42'0 0.0
2014-Jul-16 22:32N 35°28' E 139°42'0 0.0
2014-Jul-16 21:32N 35°28' E 139°42'0 0.0
2014-Jul-16 20:32N 35°28' E 139°42'0 0.0
2014-Jul-16 19:32N 35°28' E 139°42'0 0.0
2014-Jul-16 18:32N 35°28' E 139°42'0 0.0
2014-Jul-16 17:32N 35°28' E 139°42'0 0.0
2014-Jul-16 16:32N 35°28' E 139°42'0 0.0
2014-Jul-16 15:32N 35°28' E 139°42'0 0.0
2014-Jul-16 14:32N 35°28' E 139°42'0 0.0
2014-Jul-16 13:32N 35°28' E 139°42'0 0.0
2014-Jul-16 12:32N 35°28' E 139°42'0 0.0
2014-Jul-16 11:32N 35°28' E 139°42'0 0.0
2014-Jul-16 10:32N 35°28' E 139°42'0 0.0
2014-Jul-16 09:32N 35°28' E 139°42'0 0.0
2014-Jul-16 08:32N 35°28' E 139°42'0 0.0
2014-Jul-16 07:32N 35°28' E 139°42'0 0.0
2014-Jul-16 06:32N 35°28' E 139°42'0 0.0
2014-Jul-16 05:32N 35°28' E 139°42'0 0.0
2014-Jul-16 04:32N 35°28' E 139°42'0 0.0
2014-Jul-16 03:32N 35°28' E 139°42'0 0.0
2014-Jul-16 02:32N 35°28' E 139°42'0 0.0
2014-Jul-16 01:32N 35°28' E 139°42'0 0.0
2014-Jul-16 00:32N 35°28' E 139°42'0 0.0
2014-Jul-15 23:32N 35°28' E 139°42'4 4.5
2014-Jul-15 22:33N 35°24' E 139°44'0 0.4
2014-Jul-15 21:33N 35°24' E 139°45'0 0.1
2014-Jul-15 20:33N 35°24' E 139°45'0 0.0
2014-Jul-15 19:33N 35°24' E 139°45'0 0.0
2014-Jul-15 18:33N 35°24' E 139°45'0 0.0
2014-Jul-15 17:33N 35°24' E 139°45'0 0.0
2014-Jul-15 16:33N 35°24' E 139°45'0 0.1
2014-Jul-15 15:33N 35°24' E 139°45'0 0.0
2014-Jul-15 14:33N 35°24' E 139°45'0 0.0
2014-Jul-15 13:33N 35°24' E 139°45'0 0.0
2014-Jul-15 12:32N 35°24' E 139°45'0 0.0
2014-Jul-15 11:32N 35°24' E 139°45'0 0.1
2014-Jul-15 10:32N 35°24' E 139°45'0 0.1
2014-Jul-15 09:32N 35°24' E 139°45'0 0.0
2014-Jul-15 08:32N 35°24' E 139°45'1 0.6
2014-Jul-15 07:33N 35°24' E 139°44'6 6.0
2014-Jul-15 06:32N 35°29' E 139°39'0 0.0
2014-Jul-15 05:32N 35°29' E 139°39'0 0.0
2014-Jul-15 04:32N 35°29' E 139°39'0 0.0
2014-Jul-15 03:32N 35°29' E 139°39'0 0.0
2014-Jul-15 02:32N 35°29' E 139°39'0 0.0
2014-Jul-15 01:32N 35°29' E 139°39'0 0.0
2014-Jul-15 00:32N 35°29' E 139°39'0 0.0
2014-Jul-14 23:32N 35°29' E 139°39'0 0.0
2014-Jul-14 22:32N 35°29' E 139°39'0 0.0
2014-Jul-14 21:32N 35°29' E 139°39'0 0.0
2014-Jul-14 20:32N 35°29' E 139°39'0 0.0
2014-Jul-14 19:32N 35°29' E 139°39'0 0.0
2014-Jul-14 18:32N 35°29' E 139°39'0 0.0
2014-Jul-14 17:32N 35°29' E 139°39'0 0.0
2014-Jul-14 16:32N 35°29' E 139°39'0 0.0
2014-Jul-14 15:32N 35°29' E 139°39'0 0.0
2014-Jul-14 14:32N 35°29' E 139°39'0 0.0
2014-Jul-14 13:32N 35°29' E 139°39'0 0.0
2014-Jul-14 12:32N 35°29' E 139°39'0 0.0
2014-Jul-14 11:32N 35°29' E 139°39'0 0.0
2014-Jul-14 10:32N 35°29' E 139°39'0 0.0
2014-Jul-14 09:32N 35°29' E 139°39'0 0.0
2014-Jul-14 08:32N 35°29' E 139°39'0 0.0
2014-Jul-14 07:32N 35°29' E 139°39'1 1.1
2014-Jul-14 06:33N 35°28' E 139°40'4 4.5
2014-Jul-14 05:33N 35°26' E 139°45'3 3.2
2014-Jul-14 04:31N 35°28' E 139°42'0 0.0
2014-Jul-14 03:31N 35°28' E 139°42'0 0.0
2014-Jul-14 02:34N 35°28' E 139°42'0 0.0
2014-Jul-14 01:33N 35°28' E 139°42'0 0.0
2014-Jul-14 00:33N 35°28' E 139°42'0 0.0
2014-Jul-13 23:33N 35°28' E 139°42'0 0.0
2014-Jul-13 22:33N 35°28' E 139°42'0 0.0
2014-Jul-13 21:33N 35°28' E 139°42'0 0.0
2014-Jul-13 20:30N 35°28' E 139°42'0 0.0
2014-Jul-13 19:33N 35°28' E 139°42'0 0.0
2014-Jul-13 18:33N 35°28' E 139°42'0 0.0
2014-Jul-13 17:30N 35°28' E 139°42'0 0.0
2014-Jul-13 16:33N 35°28' E 139°42'0 0.0
2014-Jul-13 15:33N 35°28' E 139°42'0 0.0
2014-Jul-13 14:33N 35°28' E 139°42'0 0.0
2014-Jul-13 13:33N 35°28' E 139°42'0 0.0
2014-Jul-13 12:30N 35°28' E 139°42'0 0.0
2014-Jul-13 11:33N 35°28' E 139°42'0 0.0
2014-Jul-13 10:33N 35°28' E 139°42'0 0.0
2014-Jul-13 09:33N 35°28' E 139°42'0 0.0
2014-Jul-13 08:33N 35°28' E 139°42'0 0.0
2014-Jul-13 07:33N 35°28' E 139°42'0 0.0
2014-Jul-13 06:33N 35°28' E 139°42'0 0.0
2014-Jul-13 05:33N 35°28' E 139°42'0 0.0
2014-Jul-13 04:33N 35°28' E 139°42'0 0.0
2014-Jul-13 03:33N 35°28' E 139°42'0 0.0
2014-Jul-13 02:33N 35°28' E 139°42'0 0.0
2014-Jul-13 01:33N 35°28' E 139°42'0 0.0
2014-Jul-13 00:33N 35°28' E 139°42'0 0.0
2014-Jul-12 23:34N 35°28' E 139°42'4 4.5
2014-Jul-12 22:33N 35°24' E 139°45'0 0.0
2014-Jul-12 21:33N 35°24' E 139°45'0 0.0
2014-Jul-12 20:33N 35°24' E 139°45'0 0.0
2014-Jul-12 19:33N 35°24' E 139°45'0 0.1
2014-Jul-12 18:33N 35°24' E 139°45'0 0.0
2014-Jul-12 17:33N 35°24' E 139°45'7 6.9
2014-Jul-12 16:33N 35°17' E 139°45'1010.4
2014-Jul-12 15:33N 35°07' E 139°44'1110.5
2014-Jul-12 14:33N 34°60' E 139°35'1211.6
2014-Jul-12 13:33N 34°53' E 139°24'  

Dump ship's entire track history